sensor_id;sensor_type;location;lat;lon;timestamp;temperature;humidity
32612;DHT22;19030;49.478;8.986;2024-03-22T00:01:32;7.20;99.90
32612;DHT22;19030;49.478;8.986;2024-03-22T00:03:32;7.20;99.90
32612;DHT22;19030;49.478;8.986;2024-03-22T00:05:33;7.20;99.90
32612;DHT22;19030;49.478;8.986;2024-03-22T00:07:33;7.20;99.90
32612;DHT22;19030;49.478;8.986;2024-03-22T00:09:34;7.10;99.90
32612;DHT22;19030;49.478;8.986;2024-03-22T00:11:34;7.10;99.90
32612;DHT22;19030;49.478;8.986;2024-03-22T00:13:35;7.00;99.90
32612;DHT22;19030;49.478;8.986;2024-03-22T00:15:35;7.00;99.90
32612;DHT22;19030;49.478;8.986;2024-03-22T00:17:36;6.90;99.90
32612;DHT22;19030;49.478;8.986;2024-03-22T00:19:37;6.90;99.90
32612;DHT22;19030;49.478;8.986;2024-03-22T00:21:37;6.90;99.90
32612;DHT22;19030;49.478;8.986;2024-03-22T00:23:38;6.90;99.90
32612;DHT22;19030;49.478;8.986;2024-03-22T00:25:38;6.80;99.90
32612;DHT22;19030;49.478;8.986;2024-03-22T00:27:39;6.80;99.90
32612;DHT22;19030;49.478;8.986;2024-03-22T00:29:39;6.80;99.90
32612;DHT22;19030;49.478;8.986;2024-03-22T00:31:40;6.70;99.90
32612;DHT22;19030;49.478;8.986;2024-03-22T00:33:40;6.70;99.90
32612;DHT22;19030;49.478;8.986;2024-03-22T00:35:41;6.70;99.90
32612;DHT22;19030;49.478;8.986;2024-03-22T00:37:42;6.60;99.90
32612;DHT22;19030;49.478;8.986;2024-03-22T00:39:43;6.60;99.90
32612;DHT22;19030;49.478;8.986;2024-03-22T00:41:44;6.60;99.90
32612;DHT22;19030;49.478;8.986;2024-03-22T00:43:44;6.60;99.90
32612;DHT22;19030;49.478;8.986;2024-03-22T00:45:45;6.60;99.90
32612;DHT22;19030;49.478;8.986;2024-03-22T00:47:45;6.50;99.90
32612;DHT22;19030;49.478;8.986;2024-03-22T00:49:46;6.50;99.90
32612;DHT22;19030;49.478;8.986;2024-03-22T00:51:46;6.50;99.90
32612;DHT22;19030;49.478;8.986;2024-03-22T00:53:47;6.40;99.90
32612;DHT22;19030;49.478;8.986;2024-03-22T00:55:48;6.40;99.90
32612;DHT22;19030;49.478;8.986;2024-03-22T00:57:51;6.40;99.90
32612;DHT22;19030;49.478;8.986;2024-03-22T00:59:52;6.30;99.90
32612;DHT22;19030;49.478;8.986;2024-03-22T01:01:52;6.30;99.90
32612;DHT22;19030;49.478;8.986;2024-03-22T01:03:53;6.30;99.90
32612;DHT22;19030;49.478;8.986;2024-03-22T01:05:54;6.30;99.90
32612;DHT22;19030;49.478;8.986;2024-03-22T01:07:55;6.20;99.90
32612;DHT22;19030;49.478;8.986;2024-03-22T01:09:55;6.20;99.90
32612;DHT22;19030;49.478;8.986;2024-03-22T01:11:56;6.20;99.90
32612;DHT22;19030;49.478;8.986;2024-03-22T01:13:56;6.20;99.90
32612;DHT22;19030;49.478;8.986;2024-03-22T01:15:57;6.10;99.90
32612;DHT22;19030;49.478;8.986;2024-03-22T01:17:57;6.10;99.90
32612;DHT22;19030;49.478;8.986;2024-03-22T01:19:58;6.10;99.90
32612;DHT22;19030;49.478;8.986;2024-03-22T01:21:58;6.10;99.90
32612;DHT22;19030;49.478;8.986;2024-03-22T01:23:59;6.10;99.90
32612;DHT22;19030;49.478;8.986;2024-03-22T01:25:59;6.00;99.90
32612;DHT22;19030;49.478;8.986;2024-03-22T01:28:00;6.00;99.90
32612;DHT22;19030;49.478;8.986;2024-03-22T01:30:01;6.00;99.90
32612;DHT22;19030;49.478;8.986;2024-03-22T01:32:02;6.00;99.90
32612;DHT22;19030;49.478;8.986;2024-03-22T01:34:02;5.90;99.90
32612;DHT22;19030;49.478;8.986;2024-03-22T01:36:03;5.90;99.90
32612;DHT22;19030;49.478;8.986;2024-03-22T01:38:05;5.90;99.90
32612;DHT22;19030;49.478;8.986;2024-03-22T01:40:07;5.80;99.90
32612;DHT22;19030;49.478;8.986;2024-03-22T01:42:08;5.80;99.90
32612;DHT22;19030;49.478;8.986;2024-03-22T01:44:08;5.80;99.90
32612;DHT22;19030;49.478;8.986;2024-03-22T01:46:09;5.80;99.90
32612;DHT22;19030;49.478;8.986;2024-03-22T01:48:10;5.80;99.90
32612;DHT22;19030;49.478;8.986;2024-03-22T01:50:11;5.70;99.90
32612;DHT22;19030;49.478;8.986;2024-03-22T01:52:12;5.70;99.90
32612;DHT22;19030;49.478;8.986;2024-03-22T01:54:13;5.70;99.90
32612;DHT22;19030;49.478;8.986;2024-03-22T01:56:14;5.60;99.90
32612;DHT22;19030;49.478;8.986;2024-03-22T01:58:16;5.60;99.90
32612;DHT22;19030;49.478;8.986;2024-03-22T02:00:17;5.60;99.90
32612;DHT22;19030;49.478;8.986;2024-03-22T02:02:18;5.60;99.90
32612;DHT22;19030;49.478;8.986;2024-03-22T02:04:18;5.50;99.90
32612;DHT22;19030;49.478;8.986;2024-03-22T02:06:19;5.50;99.90
32612;DHT22;19030;49.478;8.986;2024-03-22T02:08:19;5.50;99.90
32612;DHT22;19030;49.478;8.986;2024-03-22T02:10:20;5.40;99.90
32612;DHT22;19030;49.478;8.986;2024-03-22T02:12:21;5.40;99.90
32612;DHT22;19030;49.478;8.986;2024-03-22T02:14:21;5.40;99.90
32612;DHT22;19030;49.478;8.986;2024-03-22T02:16:22;5.40;99.90
32612;DHT22;19030;49.478;8.986;2024-03-22T02:18:22;5.30;99.90
32612;DHT22;19030;49.478;8.986;2024-03-22T02:20:23;5.30;99.90
32612;DHT22;19030;49.478;8.986;2024-03-22T02:22:23;5.30;99.90
32612;DHT22;19030;49.478;8.986;2024-03-22T02:24:24;5.30;99.90
32612;DHT22;19030;49.478;8.986;2024-03-22T02:26:24;5.20;99.90
32612;DHT22;19030;49.478;8.986;2024-03-22T02:28:25;5.20;99.90
32612;DHT22;19030;49.478;8.986;2024-03-22T02:30:25;5.20;99.90
32612;DHT22;19030;49.478;8.986;2024-03-22T02:32:26;5.20;99.90
32612;DHT22;19030;49.478;8.986;2024-03-22T02:34:26;5.10;99.90
32612;DHT22;19030;49.478;8.986;2024-03-22T02:36:28;5.00;99.90
32612;DHT22;19030;49.478;8.986;2024-03-22T02:38:28;5.00;99.90
32612;DHT22;19030;49.478;8.986;2024-03-22T02:40:29;5.00;99.90
32612;DHT22;19030;49.478;8.986;2024-03-22T02:42:29;5.00;99.90
32612;DHT22;19030;49.478;8.986;2024-03-22T02:44:30;5.00;99.90
32612;DHT22;19030;49.478;8.986;2024-03-22T02:46:30;5.00;99.90
32612;DHT22;19030;49.478;8.986;2024-03-22T02:48:31;5.00;99.90
32612;DHT22;19030;49.478;8.986;2024-03-22T02:50:38;5.00;99.90
32612;DHT22;19030;49.478;8.986;2024-03-22T02:52:38;5.00;99.90
32612;DHT22;19030;49.478;8.986;2024-03-22T02:54:39;5.00;99.90
32612;DHT22;19030;49.478;8.986;2024-03-22T02:56:39;4.90;99.90
32612;DHT22;19030;49.478;8.986;2024-03-22T02:58:40;4.90;99.90
32612;DHT22;19030;49.478;8.986;2024-03-22T03:00:40;4.90;99.90
32612;DHT22;19030;49.478;8.986;2024-03-22T03:02:41;4.90;99.90
32612;DHT22;19030;49.478;8.986;2024-03-22T03:04:41;4.90;99.90
32612;DHT22;19030;49.478;8.986;2024-03-22T03:06:42;4.80;99.90
32612;DHT22;19030;49.478;8.986;2024-03-22T03:08:42;4.80;99.90
32612;DHT22;19030;49.478;8.986;2024-03-22T03:10:43;4.80;99.90
32612;DHT22;19030;49.478;8.986;2024-03-22T03:12:43;4.80;99.90
32612;DHT22;19030;49.478;8.986;2024-03-22T03:14:44;4.70;99.90
32612;DHT22;19030;49.478;8.986;2024-03-22T03:16:44;4.80;99.90
32612;DHT22;19030;49.478;8.986;2024-03-22T03:18:45;4.70;99.90
32612;DHT22;19030;49.478;8.986;2024-03-22T03:20:45;4.70;99.90
32612;DHT22;19030;49.478;8.986;2024-03-22T03:22:46;4.70;99.90
32612;DHT22;19030;49.478;8.986;2024-03-22T03:24:46;4.70;99.90
32612;DHT22;19030;49.478;8.986;2024-03-22T03:26:47;4.80;99.90
32612;DHT22;19030;49.478;8.986;2024-03-22T03:28:47;4.80;99.90
32612;DHT22;19030;49.478;8.986;2024-03-22T03:30:48;4.90;99.90
32612;DHT22;19030;49.478;8.986;2024-03-22T03:32:48;5.00;99.90
32612;DHT22;19030;49.478;8.986;2024-03-22T03:34:49;5.00;99.90
32612;DHT22;19030;49.478;8.986;2024-03-22T03:36:49;5.00;99.90
32612;DHT22;19030;49.478;8.986;2024-03-22T03:38:50;5.00;99.90
32612;DHT22;19030;49.478;8.986;2024-03-22T03:40:51;5.00;99.90
32612;DHT22;19030;49.478;8.986;2024-03-22T03:42:51;5.00;99.90
32612;DHT22;19030;49.478;8.986;2024-03-22T03:44:52;5.00;99.90
32612;DHT22;19030;49.478;8.986;2024-03-22T03:46:52;5.00;99.90
32612;DHT22;19030;49.478;8.986;2024-03-22T03:48:53;5.00;99.90
32612;DHT22;19030;49.478;8.986;2024-03-22T03:50:54;5.00;99.90
32612;DHT22;19030;49.478;8.986;2024-03-22T03:52:55;5.00;99.90
32612;DHT22;19030;49.478;8.986;2024-03-22T03:54:56;5.10;99.90
32612;DHT22;19030;49.478;8.986;2024-03-22T03:56:56;5.10;99.90
32612;DHT22;19030;49.478;8.986;2024-03-22T03:58:57;5.20;99.90
32612;DHT22;19030;49.478;8.986;2024-03-22T04:00:57;5.10;99.90
32612;DHT22;19030;49.478;8.986;2024-03-22T04:02:58;5.10;99.90
32612;DHT22;19030;49.478;8.986;2024-03-22T04:04:59;5.10;99.90
32612;DHT22;19030;49.478;8.986;2024-03-22T04:06:59;5.00;99.90
32612;DHT22;19030;49.478;8.986;2024-03-22T04:09:00;5.00;99.90
32612;DHT22;19030;49.478;8.986;2024-03-22T04:11:01;5.00;99.90
32612;DHT22;19030;49.478;8.986;2024-03-22T04:13:01;4.90;99.90
32612;DHT22;19030;49.478;8.986;2024-03-22T04:15:02;4.90;99.90
32612;DHT22;19030;49.478;8.986;2024-03-22T04:17:03;4.90;99.90
32612;DHT22;19030;49.478;8.986;2024-03-22T04:19:03;4.90;99.90
32612;DHT22;19030;49.478;8.986;2024-03-22T04:21:04;4.90;99.90
32612;DHT22;19030;49.478;8.986;2024-03-22T04:23:05;4.90;99.90
32612;DHT22;19030;49.478;8.986;2024-03-22T04:25:06;4.90;99.90
32612;DHT22;19030;49.478;8.986;2024-03-22T04:27:06;4.90;99.90
32612;DHT22;19030;49.478;8.986;2024-03-22T04:29:08;4.90;99.90
32612;DHT22;19030;49.478;8.986;2024-03-22T04:31:09;4.90;99.90
32612;DHT22;19030;49.478;8.986;2024-03-22T04:33:10;4.90;99.90
32612;DHT22;19030;49.478;8.986;2024-03-22T04:35:10;4.90;99.90
32612;DHT22;19030;49.478;8.986;2024-03-22T04:37:11;4.90;99.90
32612;DHT22;19030;49.478;8.986;2024-03-22T04:39:14;4.80;99.90
32612;DHT22;19030;49.478;8.986;2024-03-22T04:41:16;4.90;99.90
32612;DHT22;19030;49.478;8.986;2024-03-22T04:43:17;4.80;99.90
32612;DHT22;19030;49.478;8.986;2024-03-22T04:45:18;4.90;99.90
32612;DHT22;19030;49.478;8.986;2024-03-22T04:47:18;4.90;99.90
32612;DHT22;19030;49.478;8.986;2024-03-22T04:49:19;4.90;99.90
32612;DHT22;19030;49.478;8.986;2024-03-22T04:51:19;4.90;99.90
32612;DHT22;19030;49.478;8.986;2024-03-22T04:53:20;4.90;99.90
32612;DHT22;19030;49.478;8.986;2024-03-22T04:55:21;4.90;99.90
32612;DHT22;19030;49.478;8.986;2024-03-22T04:57:22;4.90;99.90
32612;DHT22;19030;49.478;8.986;2024-03-22T04:59:22;4.90;99.90
32612;DHT22;19030;49.478;8.986;2024-03-22T05:01:23;4.90;99.90
32612;DHT22;19030;49.478;8.986;2024-03-22T05:03:24;4.80;99.90
32612;DHT22;19030;49.478;8.986;2024-03-22T05:05:24;4.90;99.90
32612;DHT22;19030;49.478;8.986;2024-03-22T05:07:25;4.80;99.90
32612;DHT22;19030;49.478;8.986;2024-03-22T05:09:25;4.80;99.90
32612;DHT22;19030;49.478;8.986;2024-03-22T05:11:26;4.80;99.90
32612;DHT22;19030;49.478;8.986;2024-03-22T05:13:26;4.80;99.90
32612;DHT22;19030;49.478;8.986;2024-03-22T05:15:28;4.80;99.90
32612;DHT22;19030;49.478;8.986;2024-03-22T05:17:28;4.80;99.90
32612;DHT22;19030;49.478;8.986;2024-03-22T05:19:29;4.80;99.90
32612;DHT22;19030;49.478;8.986;2024-03-22T05:21:30;4.90;99.90
32612;DHT22;19030;49.478;8.986;2024-03-22T05:23:30;4.90;99.90
32612;DHT22;19030;49.478;8.986;2024-03-22T05:25:31;4.90;99.90
32612;DHT22;19030;49.478;8.986;2024-03-22T05:27:32;4.90;99.90
32612;DHT22;19030;49.478;8.986;2024-03-22T05:29:33;4.90;99.90
32612;DHT22;19030;49.478;8.986;2024-03-22T05:31:48;4.90;99.90
32612;DHT22;19030;49.478;8.986;2024-03-22T05:33:49;4.90;99.90
32612;DHT22;19030;49.478;8.986;2024-03-22T05:35:50;4.90;99.90
32612;DHT22;19030;49.478;8.986;2024-03-22T05:37:50;4.90;99.90
32612;DHT22;19030;49.478;8.986;2024-03-22T05:39:51;4.90;99.90
32612;DHT22;19030;49.478;8.986;2024-03-22T05:41:51;4.90;99.90
32612;DHT22;19030;49.478;8.986;2024-03-22T05:43:52;4.90;99.90
32612;DHT22;19030;49.478;8.986;2024-03-22T05:45:52;5.00;99.90
32612;DHT22;19030;49.478;8.986;2024-03-22T05:47:53;5.00;99.90
32612;DHT22;19030;49.478;8.986;2024-03-22T05:49:53;5.00;99.90
32612;DHT22;19030;49.478;8.986;2024-03-22T05:51:54;5.10;99.90
32612;DHT22;19030;49.478;8.986;2024-03-22T05:53:54;5.10;99.90
32612;DHT22;19030;49.478;8.986;2024-03-22T05:55:55;5.20;99.90
32612;DHT22;19030;49.478;8.986;2024-03-22T05:57:55;5.30;99.90
32612;DHT22;19030;49.478;8.986;2024-03-22T05:59:56;5.30;99.90
32612;DHT22;19030;49.478;8.986;2024-03-22T06:01:57;5.30;99.90
32612;DHT22;19030;49.478;8.986;2024-03-22T06:03:57;5.30;99.90
32612;DHT22;19030;49.478;8.986;2024-03-22T06:05:59;5.30;99.90
32612;DHT22;19030;49.478;8.986;2024-03-22T06:08:01;5.30;99.90
32612;DHT22;19030;49.478;8.986;2024-03-22T06:10:01;5.30;99.90
32612;DHT22;19030;49.478;8.986;2024-03-22T06:12:04;5.30;99.90
32612;DHT22;19030;49.478;8.986;2024-03-22T06:14:05;5.30;99.90
32612;DHT22;19030;49.478;8.986;2024-03-22T06:16:05;5.40;99.90
32612;DHT22;19030;49.478;8.986;2024-03-22T06:18:06;5.50;99.90
32612;DHT22;19030;49.478;8.986;2024-03-22T06:20:07;5.70;99.90
32612;DHT22;19030;49.478;8.986;2024-03-22T06:22:10;5.90;99.90
32612;DHT22;19030;49.478;8.986;2024-03-22T06:24:10;6.30;99.90
32612;DHT22;19030;49.478;8.986;2024-03-22T06:26:11;6.60;99.90
32612;DHT22;19030;49.478;8.986;2024-03-22T06:28:11;7.10;99.90
32612;DHT22;19030;49.478;8.986;2024-03-22T06:30:12;7.50;99.90
32612;DHT22;19030;49.478;8.986;2024-03-22T06:32:12;7.80;99.90
32612;DHT22;19030;49.478;8.986;2024-03-22T06:34:13;8.10;99.90
32612;DHT22;19030;49.478;8.986;2024-03-22T06:36:13;8.30;99.90
32612;DHT22;19030;49.478;8.986;2024-03-22T06:38:14;8.80;99.90
32612;DHT22;19030;49.478;8.986;2024-03-22T06:40:16;9.40;99.90
32612;DHT22;19030;49.478;8.986;2024-03-22T06:42:16;9.80;99.90
32612;DHT22;19030;49.478;8.986;2024-03-22T06:44:17;10.00;99.90
32612;DHT22;19030;49.478;8.986;2024-03-22T06:46:17;10.30;99.90
32612;DHT22;19030;49.478;8.986;2024-03-22T06:48:18;10.80;99.90
32612;DHT22;19030;49.478;8.986;2024-03-22T06:50:18;11.20;99.90
32612;DHT22;19030;49.478;8.986;2024-03-22T06:52:24;11.50;99.90
32612;DHT22;19030;49.478;8.986;2024-03-22T06:54:25;11.60;99.90
32612;DHT22;19030;49.478;8.986;2024-03-22T06:56:26;11.80;99.90
32612;DHT22;19030;49.478;8.986;2024-03-22T06:58:27;12.00;99.90
32612;DHT22;19030;49.478;8.986;2024-03-22T07:00:29;12.30;99.90
32612;DHT22;19030;49.478;8.986;2024-03-22T07:02:29;12.60;99.90
32612;DHT22;19030;49.478;8.986;2024-03-22T07:04:30;13.00;99.90
32612;DHT22;19030;49.478;8.986;2024-03-22T07:06:30;13.30;99.90
32612;DHT22;19030;49.478;8.986;2024-03-22T07:08:31;13.50;99.90
32612;DHT22;19030;49.478;8.986;2024-03-22T07:10:32;13.70;99.90
32612;DHT22;19030;49.478;8.986;2024-03-22T07:12:33;13.70;99.90
32612;DHT22;19030;49.478;8.986;2024-03-22T07:14:34;13.50;99.90
32612;DHT22;19030;49.478;8.986;2024-03-22T07:16:35;13.40;99.90
32612;DHT22;19030;49.478;8.986;2024-03-22T07:18:37;13.10;99.90
32612;DHT22;19030;49.478;8.986;2024-03-22T07:20:37;12.60;99.90
32612;DHT22;19030;49.478;8.986;2024-03-22T07:22:38;12.30;99.90
32612;DHT22;19030;49.478;8.986;2024-03-22T07:24:38;12.00;99.90
32612;DHT22;19030;49.478;8.986;2024-03-22T07:26:39;11.80;99.90
32612;DHT22;19030;49.478;8.986;2024-03-22T07:28:40;11.50;99.90
32612;DHT22;19030;49.478;8.986;2024-03-22T07:30:41;11.20;99.90
32612;DHT22;19030;49.478;8.986;2024-03-22T07:32:41;11.10;99.90
32612;DHT22;19030;49.478;8.986;2024-03-22T07:34:45;11.00;99.90
32612;DHT22;19030;49.478;8.986;2024-03-22T07:36:45;10.90;99.90
32612;DHT22;19030;49.478;8.986;2024-03-22T07:38:46;10.80;99.90
32612;DHT22;19030;49.478;8.986;2024-03-22T07:40:47;10.70;99.90
32612;DHT22;19030;49.478;8.986;2024-03-22T07:42:47;10.60;99.90
32612;DHT22;19030;49.478;8.986;2024-03-22T07:44:48;10.70;99.90
32612;DHT22;19030;49.478;8.986;2024-03-22T07:46:48;10.70;99.90
32612;DHT22;19030;49.478;8.986;2024-03-22T07:48:49;10.80;99.90
32612;DHT22;19030;49.478;8.986;2024-03-22T07:50:57;11.00;99.90
32612;DHT22;19030;49.478;8.986;2024-03-22T07:52:57;11.30;99.90
32612;DHT22;19030;49.478;8.986;2024-03-22T07:54:58;11.60;99.90
32612;DHT22;19030;49.478;8.986;2024-03-22T07:56:58;12.00;99.90
32612;DHT22;19030;49.478;8.986;2024-03-22T07:58:59;12.20;99.90
32612;DHT22;19030;49.478;8.986;2024-03-22T08:01:00;12.20;99.90
32612;DHT22;19030;49.478;8.986;2024-03-22T08:03:00;12.20;99.90
32612;DHT22;19030;49.478;8.986;2024-03-22T08:05:01;12.20;99.90
32612;DHT22;19030;49.478;8.986;2024-03-22T08:07:02;12.20;99.90
32612;DHT22;19030;49.478;8.986;2024-03-22T08:09:02;12.30;99.90
32612;DHT22;19030;49.478;8.986;2024-03-22T08:11:03;12.50;99.90
32612;DHT22;19030;49.478;8.986;2024-03-22T08:13:04;12.80;99.90
32612;DHT22;19030;49.478;8.986;2024-03-22T08:15:05;13.20;99.90
32612;DHT22;19030;49.478;8.986;2024-03-22T08:17:07;13.50;99.90
32612;DHT22;19030;49.478;8.986;2024-03-22T08:19:09;13.80;99.90
32612;DHT22;19030;49.478;8.986;2024-03-22T08:21:10;14.20;99.90
32612;DHT22;19030;49.478;8.986;2024-03-22T08:23:10;14.40;99.90
32612;DHT22;19030;49.478;8.986;2024-03-22T08:25:11;14.50;99.90
32612;DHT22;19030;49.478;8.986;2024-03-22T08:27:12;14.60;99.90
32612;DHT22;19030;49.478;8.986;2024-03-22T08:29:13;14.80;99.90
32612;DHT22;19030;49.478;8.986;2024-03-22T08:31:15;14.90;99.90
32612;DHT22;19030;49.478;8.986;2024-03-22T08:33:18;14.90;99.90
32612;DHT22;19030;49.478;8.986;2024-03-22T08:35:19;14.80;99.90
32612;DHT22;19030;49.478;8.986;2024-03-22T08:37:19;14.80;99.90
32612;DHT22;19030;49.478;8.986;2024-03-22T08:39:20;14.70;99.90
32612;DHT22;19030;49.478;8.986;2024-03-22T08:41:20;14.50;99.90
32612;DHT22;19030;49.478;8.986;2024-03-22T08:43:21;14.40;99.90
32612;DHT22;19030;49.478;8.986;2024-03-22T08:45:23;14.30;99.90
32612;DHT22;19030;49.478;8.986;2024-03-22T08:47:24;14.20;99.90
32612;DHT22;19030;49.478;8.986;2024-03-22T08:49:24;14.10;99.90
32612;DHT22;19030;49.478;8.986;2024-03-22T08:51:25;14.00;99.90
32612;DHT22;19030;49.478;8.986;2024-03-22T08:53:25;13.80;99.90
32612;DHT22;19030;49.478;8.986;2024-03-22T08:55:26;13.60;99.90
32612;DHT22;19030;49.478;8.986;2024-03-22T08:57:26;13.40;99.90
32612;DHT22;19030;49.478;8.986;2024-03-22T08:59:27;13.40;99.90
32612;DHT22;19030;49.478;8.986;2024-03-22T09:01:27;13.50;99.90
32612;DHT22;19030;49.478;8.986;2024-03-22T09:03:28;13.50;99.90
32612;DHT22;19030;49.478;8.986;2024-03-22T09:05:30;13.50;99.90
32612;DHT22;19030;49.478;8.986;2024-03-22T09:07:31;13.60;99.90
32612;DHT22;19030;49.478;8.986;2024-03-22T09:09:32;13.60;99.90
32612;DHT22;19030;49.478;8.986;2024-03-22T09:11:32;13.60;99.90
32612;DHT22;19030;49.478;8.986;2024-03-22T09:13:33;13.60;99.90
32612;DHT22;19030;49.478;8.986;2024-03-22T09:15:35;13.70;99.90
32612;DHT22;19030;49.478;8.986;2024-03-22T09:17:36;13.80;99.90
32612;DHT22;19030;49.478;8.986;2024-03-22T09:19:36;13.90;99.90
32612;DHT22;19030;49.478;8.986;2024-03-22T09:21:37;14.00;99.90
32612;DHT22;19030;49.478;8.986;2024-03-22T09:23:37;14.00;99.90
32612;DHT22;19030;49.478;8.986;2024-03-22T09:25:38;14.00;99.90
32612;DHT22;19030;49.478;8.986;2024-03-22T09:27:38;13.90;99.90
32612;DHT22;19030;49.478;8.986;2024-03-22T09:29:39;14.00;99.90
32612;DHT22;19030;49.478;8.986;2024-03-22T09:31:40;14.10;99.90
32612;DHT22;19030;49.478;8.986;2024-03-22T09:33:40;14.30;99.90
32612;DHT22;19030;49.478;8.986;2024-03-22T09:35:41;14.40;99.90
32612;DHT22;19030;49.478;8.986;2024-03-22T09:37:41;14.60;99.90
32612;DHT22;19030;49.478;8.986;2024-03-22T09:39:42;14.80;99.90
32612;DHT22;19030;49.478;8.986;2024-03-22T09:41:43;15.00;99.90
32612;DHT22;19030;49.478;8.986;2024-03-22T09:43:47;15.00;99.90
32612;DHT22;19030;49.478;8.986;2024-03-22T09:45:52;14.90;99.90
32612;DHT22;19030;49.478;8.986;2024-03-22T09:47:53;15.00;99.90
32612;DHT22;19030;49.478;8.986;2024-03-22T09:49:56;15.20;99.90
32612;DHT22;19030;49.478;8.986;2024-03-22T09:51:57;15.50;99.90
32612;DHT22;19030;49.478;8.986;2024-03-22T09:53:58;15.80;99.90
32612;DHT22;19030;49.478;8.986;2024-03-22T09:55:59;16.20;99.90
32612;DHT22;19030;49.478;8.986;2024-03-22T09:58:02;16.60;99.90
32612;DHT22;19030;49.478;8.986;2024-03-22T10:00:02;16.90;99.90
32612;DHT22;19030;49.478;8.986;2024-03-22T10:02:12;17.20;99.80
32612;DHT22;19030;49.478;8.986;2024-03-22T10:04:13;17.70;98.20
32612;DHT22;19030;49.478;8.986;2024-03-22T10:06:14;18.60;97.30
32612;DHT22;19030;49.478;8.986;2024-03-22T10:08:14;20.20;93.30
32612;DHT22;19030;49.478;8.986;2024-03-22T10:10:15;21.40;87.90
32612;DHT22;19030;49.478;8.986;2024-03-22T10:12:16;21.70;80.70
32612;DHT22;19030;49.478;8.986;2024-03-22T10:14:17;22.20;76.80
32612;DHT22;19030;49.478;8.986;2024-03-22T10:16:17;23.40;70.30
32612;DHT22;19030;49.478;8.986;2024-03-22T10:18:19;24.60;62.80
32612;DHT22;19030;49.478;8.986;2024-03-22T10:20:20;25.60;58.30
32612;DHT22;19030;49.478;8.986;2024-03-22T10:22:21;26.90;54.10
32612;DHT22;19030;49.478;8.986;2024-03-22T10:24:21;27.00;52.20
32612;DHT22;19030;49.478;8.986;2024-03-22T10:26:22;26.60;51.60
32612;DHT22;19030;49.478;8.986;2024-03-22T10:28:22;26.10;50.90
32612;DHT22;19030;49.478;8.986;2024-03-22T10:30:24;25.40;51.70
32612;DHT22;19030;49.478;8.986;2024-03-22T10:32:25;24.70;52.90
32612;DHT22;19030;49.478;8.986;2024-03-22T10:34:26;24.10;54.00
32612;DHT22;19030;49.478;8.986;2024-03-22T10:36:28;23.20;55.60
32612;DHT22;19030;49.478;8.986;2024-03-22T10:38:30;22.30;57.10
32612;DHT22;19030;49.478;8.986;2024-03-22T10:40:34;21.40;59.30
32612;DHT22;19030;49.478;8.986;2024-03-22T10:42:37;20.60;62.30
32612;DHT22;19030;49.478;8.986;2024-03-22T10:44:38;20.20;64.60
32612;DHT22;19030;49.478;8.986;2024-03-22T10:46:44;20.00;64.90
32612;DHT22;19030;49.478;8.986;2024-03-22T10:48:45;19.80;66.00
32612;DHT22;19030;49.478;8.986;2024-03-22T10:50:46;19.40;67.40
32612;DHT22;19030;49.478;8.986;2024-03-22T10:52:52;19.10;69.20
32612;DHT22;19030;49.478;8.986;2024-03-22T10:54:53;19.00;69.50
32612;DHT22;19030;49.478;8.986;2024-03-22T10:56:54;19.10;69.60
32612;DHT22;19030;49.478;8.986;2024-03-22T10:58:55;19.10;70.00
32612;DHT22;19030;49.478;8.986;2024-03-22T11:00:56;19.00;70.50
32612;DHT22;19030;49.478;8.986;2024-03-22T11:02:56;18.70;70.50
32612;DHT22;19030;49.478;8.986;2024-03-22T11:04:57;18.30;71.80
32612;DHT22;19030;49.478;8.986;2024-03-22T11:06:58;18.10;73.10
32612;DHT22;19030;49.478;8.986;2024-03-22T11:09:00;17.80;74.30
32612;DHT22;19030;49.478;8.986;2024-03-22T11:11:10;17.60;75.70
32612;DHT22;19030;49.478;8.986;2024-03-22T11:13:11;17.40;76.60
32612;DHT22;19030;49.478;8.986;2024-03-22T11:15:11;17.20;78.10
32612;DHT22;19030;49.478;8.986;2024-03-22T11:17:13;17.00;79.10
32612;DHT22;19030;49.478;8.986;2024-03-22T11:19:14;16.90;80.70
32612;DHT22;19030;49.478;8.986;2024-03-22T11:21:18;16.80;81.50
32612;DHT22;19030;49.478;8.986;2024-03-22T11:23:18;16.70;82.80
32612;DHT22;19030;49.478;8.986;2024-03-22T11:25:19;16.70;83.00
32612;DHT22;19030;49.478;8.986;2024-03-22T11:27:20;16.70;83.40
32612;DHT22;19030;49.478;8.986;2024-03-22T11:29:21;16.80;82.90
32612;DHT22;19030;49.478;8.986;2024-03-22T11:31:22;16.90;82.90
32612;DHT22;19030;49.478;8.986;2024-03-22T11:33:27;16.90;83.70
32612;DHT22;19030;49.478;8.986;2024-03-22T11:35:30;16.80;84.20
32612;DHT22;19030;49.478;8.986;2024-03-22T11:37:31;16.70;84.80
32612;DHT22;19030;49.478;8.986;2024-03-22T11:39:33;16.70;85.50
32612;DHT22;19030;49.478;8.986;2024-03-22T11:41:35;16.70;86.10
32612;DHT22;19030;49.478;8.986;2024-03-22T11:43:36;16.70;86.40
32612;DHT22;19030;49.478;8.986;2024-03-22T11:45:37;16.70;87.10
32612;DHT22;19030;49.478;8.986;2024-03-22T11:47:38;16.70;86.80
32612;DHT22;19030;49.478;8.986;2024-03-22T11:49:38;16.80;87.00
32612;DHT22;19030;49.478;8.986;2024-03-22T11:51:40;16.90;87.20
32612;DHT22;19030;49.478;8.986;2024-03-22T11:53:49;17.00;86.50
32612;DHT22;19030;49.478;8.986;2024-03-22T11:55:50;16.90;87.50
32612;DHT22;19030;49.478;8.986;2024-03-22T11:57:50;16.90;85.30
32612;DHT22;19030;49.478;8.986;2024-03-22T11:59:52;17.00;86.20
32612;DHT22;19030;49.478;8.986;2024-03-22T12:01:58;16.90;84.70
32612;DHT22;19030;49.478;8.986;2024-03-22T12:04:00;17.00;85.70
32612;DHT22;19030;49.478;8.986;2024-03-22T12:06:01;17.10;85.20
32612;DHT22;19030;49.478;8.986;2024-03-22T12:08:02;17.20;84.20
32612;DHT22;19030;49.478;8.986;2024-03-22T12:10:03;17.30;83.90
32612;DHT22;19030;49.478;8.986;2024-03-22T12:12:04;17.50;81.30
32612;DHT22;19030;49.478;8.986;2024-03-22T12:14:05;17.60;79.30
32612;DHT22;19030;49.478;8.986;2024-03-22T12:16:06;17.90;76.40
32612;DHT22;19030;49.478;8.986;2024-03-22T12:18:07;18.00;76.10
32612;DHT22;19030;49.478;8.986;2024-03-22T12:20:09;18.20;75.40
32612;DHT22;19030;49.478;8.986;2024-03-22T12:22:10;18.40;73.80
32612;DHT22;19030;49.478;8.986;2024-03-22T12:24:10;18.60;72.20
32612;DHT22;19030;49.478;8.986;2024-03-22T12:26:11;18.80;70.60
32612;DHT22;19030;49.478;8.986;2024-03-22T12:28:12;19.00;69.20
32612;DHT22;19030;49.478;8.986;2024-03-22T12:30:14;18.90;68.90
32612;DHT22;19030;49.478;8.986;2024-03-22T12:32:15;19.00;68.50
32612;DHT22;19030;49.478;8.986;2024-03-22T12:34:16;19.00;67.40
32612;DHT22;19030;49.478;8.986;2024-03-22T12:36:16;19.00;67.10
32612;DHT22;19030;49.478;8.986;2024-03-22T12:38:17;18.90;67.70
32612;DHT22;19030;49.478;8.986;2024-03-22T12:40:18;19.10;67.90
32612;DHT22;19030;49.478;8.986;2024-03-22T12:42:21;19.20;66.80
32612;DHT22;19030;49.478;8.986;2024-03-22T12:44:22;19.20;66.00
32612;DHT22;19030;49.478;8.986;2024-03-22T12:46:22;19.20;65.90
32612;DHT22;19030;49.478;8.986;2024-03-22T12:48:23;19.00;66.00
32612;DHT22;19030;49.478;8.986;2024-03-22T12:50:24;18.90;66.60
32612;DHT22;19030;49.478;8.986;2024-03-22T12:52:24;18.90;67.20